createdAt,value
2023-05-08T00:01:57.588Z,3.60
2023-05-08T00:04:25.209Z,3.67
2023-05-08T00:06:53.024Z,3.40
2023-05-08T00:09:21.191Z,3.60
2023-05-08T00:11:49.190Z,3.47
2023-05-08T00:14:16.733Z,3.70
2023-05-08T00:16:45.721Z,3.60
2023-05-08T00:19:13.409Z,3.60
2023-05-08T00:21:41.017Z,3.70
2023-05-08T00:24:08.782Z,3.78
2023-05-08T00:26:36.376Z,3.55
2023-05-08T00:29:06.009Z,3.83
2023-05-08T00:31:34.615Z,3.90
2023-05-08T00:34:03.612Z,4.10
2023-05-08T00:36:32.302Z,4.05
2023-05-08T00:39:00.000Z,4.32
2023-05-08T00:41:27.528Z,3.88
2023-05-08T00:43:55.066Z,4.07
2023-05-08T00:46:22.980Z,3.70
2023-05-08T00:48:50.644Z,4.30
2023-05-08T00:51:19.681Z,3.92
2023-05-08T00:53:47.295Z,4.13
2023-05-08T00:56:16.765Z,3.70
2023-05-08T00:58:45.591Z,3.85
2023-05-08T01:01:13.251Z,4.60
2023-05-08T01:03:41.733Z,3.97
2023-05-08T01:06:09.522Z,3.90
2023-05-08T01:08:38.419Z,4.33
2023-05-08T01:11:13.845Z,4.18
2023-05-08T01:13:53.101Z,4.20
2023-05-08T01:16:32.131Z,3.97
2023-05-08T01:19:04.931Z,4.35
2023-05-08T01:21:39.234Z,3.80
2023-05-08T01:24:36.218Z,4.10
2023-05-08T01:27:37.626Z,4.40
2023-05-08T01:30:20.744Z,4.00
2023-05-08T01:32:58.340Z,4.40
2023-05-08T01:35:33.711Z,4.10
2023-05-08T01:38:10.642Z,4.28
2023-05-08T01:40:46.638Z,4.32
2023-05-08T01:43:24.050Z,3.95
2023-05-08T01:45:54.028Z,4.10
2023-05-08T01:48:29.070Z,4.30
2023-05-08T01:51:03.742Z,4.07
2023-05-08T01:53:35.641Z,4.40
2023-05-08T01:56:09.127Z,4.30
2023-05-08T01:58:38.451Z,4.13
2023-05-08T02:01:07.243Z,4.20
2023-05-08T02:03:38.400Z,4.28
2023-05-08T02:06:09.151Z,4.25
2023-05-08T02:08:38.339Z,4.32
2023-05-08T02:11:07.634Z,4.30
2023-05-08T02:13:36.537Z,3.97
2023-05-08T02:16:05.393Z,3.97
2023-05-08T02:18:33.263Z,3.92
2023-05-08T02:21:05.212Z,4.13
2023-05-08T02:23:34.981Z,4.20
2023-05-08T02:26:04.737Z,4.10
2023-05-08T02:28:34.363Z,4.25
2023-05-08T02:31:02.862Z,4.53
2023-05-08T02:33:31.376Z,4.35
2023-05-08T02:35:59.674Z,4.40
2023-05-08T02:38:32.649Z,4.43
2023-05-08T02:41:05.420Z,4.15
2023-05-08T02:43:33.709Z,4.20
2023-05-08T02:46:11.081Z,4.32
2023-05-08T02:48:41.917Z,4.20
2023-05-08T02:51:19.406Z,4.47
2023-05-08T02:53:55.801Z,4.38
2023-05-08T02:56:33.743Z,4.72
2023-05-08T02:59:14.103Z,4.65
2023-05-08T03:01:48.073Z,4.30
2023-05-08T03:04:25.540Z,4.40
2023-05-08T03:06:57.799Z,4.60
2023-05-08T03:09:32.966Z,4.65
2023-05-08T03:12:04.716Z,4.25
2023-05-08T03:14:36.312Z,4.30
2023-05-08T03:17:07.295Z,4.77
2023-05-08T03:19:38.013Z,4.80
2023-05-08T03:22:08.441Z,4.82
2023-05-08T03:24:39.429Z,4.80
2023-05-08T03:27:08.325Z,4.90
2023-05-08T03:29:39.750Z,4.97
2023-05-08T03:32:08.841Z,4.80
2023-05-08T03:34:37.771Z,4.70
2023-05-08T03:37:06.246Z,4.63
2023-05-08T03:39:33.923Z,4.68
2023-05-08T03:42:03.202Z,4.70
2023-05-08T03:44:31.576Z,4.40
2023-05-08T03:46:59.729Z,4.78
2023-05-08T03:49:30.519Z,4.50
2023-05-08T03:51:58.467Z,4.80
2023-05-08T03:54:28.340Z,5.07
2023-05-08T03:56:56.188Z,4.90
2023-05-08T03:59:33.850Z,4.70
2023-05-08T04:02:18.407Z,4.72
2023-05-08T04:04:48.461Z,4.85
2023-05-08T04:07:25.399Z,4.63
2023-05-08T04:10:00.497Z,5.13
2023-05-08T04:12:38.103Z,5.07
2023-05-08T04:15:11.970Z,5.18
2023-05-08T04:17:44.150Z,4.90
2023-05-08T04:20:18.473Z,5.23
2023-05-08T04:22:48.296Z,5.00
2023-05-08T04:25:17.750Z,5.25
2023-05-08T04:27:47.342Z,5.70
2023-05-08T04:30:16.820Z,5.20
2023-05-08T04:32:46.900Z,5.20
2023-05-08T04:35:16.242Z,5.03
2023-05-08T04:37:45.009Z,5.30
2023-05-08T04:40:13.197Z,5.07
2023-05-08T04:42:42.923Z,5.25
2023-05-08T04:45:11.827Z,5.20
2023-05-08T04:47:41.143Z,5.60
2023-05-08T04:50:09.506Z,5.93
2023-05-08T04:52:37.337Z,5.40
2023-05-08T04:55:05.390Z,6.45
2023-05-08T04:57:36.023Z,5.50
2023-05-08T05:00:04.964Z,5.20
2023-05-08T05:02:34.094Z,5.15
2023-05-08T05:05:03.648Z,5.88
2023-05-08T05:07:31.181Z,5.15
2023-05-08T05:09:58.912Z,5.57
2023-05-08T05:12:26.501Z,5.40
2023-05-08T05:14:54.077Z,5.90
2023-05-08T05:17:21.713Z,5.60
2023-05-08T05:19:51.430Z,5.90
2023-05-08T05:22:21.069Z,5.57
2023-05-08T05:24:48.741Z,5.97
2023-05-08T05:27:16.277Z,5.55
2023-05-08T05:29:43.961Z,5.30
2023-05-08T05:32:12.023Z,6.18
2023-05-08T05:34:40.875Z,6.00
2023-05-08T05:37:08.521Z,5.30
2023-05-08T05:39:37.827Z,5.93
2023-05-08T05:42:06.179Z,5.20
2023-05-08T05:44:33.767Z,6.22
2023-05-08T05:47:01.392Z,5.50
2023-05-08T05:49:29.104Z,5.53
2023-05-08T05:51:56.644Z,5.90
2023-05-08T05:54:24.190Z,7.22
2023-05-08T05:56:53.106Z,5.80
2023-05-08T05:59:20.719Z,5.40
2023-05-08T06:01:48.280Z,5.35
2023-05-08T06:04:15.874Z,5.53
2023-05-08T06:06:43.496Z,6.05
2023-05-08T06:09:11.031Z,5.65
2023-05-08T06:11:38.597Z,6.20
2023-05-08T06:14:07.525Z,5.88
2023-05-08T06:16:35.961Z,5.75
2023-05-08T06:19:03.562Z,6.18
2023-05-08T06:21:31.834Z,5.50
2023-05-08T06:23:59.345Z,5.90
2023-05-08T06:26:27.167Z,5.70
2023-05-08T06:28:54.750Z,6.00
2023-05-08T06:31:23.720Z,6.15
2023-05-08T06:33:51.314Z,6.07
2023-05-08T06:36:18.862Z,5.60
2023-05-08T06:38:46.401Z,5.82
2023-05-08T06:41:15.325Z,6.45
2023-05-08T06:43:43.101Z,6.53
2023-05-08T06:46:10.769Z,5.97
2023-05-08T06:48:39.695Z,6.63
2023-05-08T06:51:07.372Z,6.32
2023-05-08T06:53:34.945Z,6.93
2023-05-08T06:56:02.502Z,6.18
2023-05-08T06:58:31.460Z,6.60
2023-05-08T07:01:00.597Z,7.07
2023-05-08T07:03:28.243Z,5.97
2023-05-08T07:05:57.192Z,6.35
2023-05-08T07:08:25.710Z,6.60
2023-05-08T07:10:53.611Z,6.60
2023-05-08T07:13:22.090Z,6.53
2023-05-08T07:15:49.711Z,7.13
2023-05-08T07:18:17.353Z,6.50
2023-05-08T07:20:44.934Z,6.50
2023-05-08T07:23:13.827Z,6.05
2023-05-08T07:25:41.441Z,6.10
2023-05-08T07:28:09.028Z,6.82
2023-05-08T07:30:36.761Z,6.93
2023-05-08T07:33:04.842Z,6.90
2023-05-08T07:35:32.566Z,6.80
2023-05-08T07:38:00.221Z,6.63
2023-05-08T07:40:29.082Z,6.53
2023-05-08T07:42:56.735Z,6.22
2023-05-08T07:45:24.397Z,6.40
2023-05-08T07:47:53.257Z,6.45
2023-05-08T07:50:21.360Z,6.57
2023-05-08T07:52:50.271Z,7.82
2023-05-08T07:55:18.627Z,7.60
2023-05-08T07:57:47.632Z,6.55
2023-05-08T08:00:16.556Z,6.93
2023-05-08T08:02:45.386Z,7.07
2023-05-08T08:05:13.512Z,6.20
2023-05-08T08:07:41.245Z,6.72
2023-05-08T08:10:09.732Z,7.20
2023-05-08T08:12:37.361Z,7.90
2023-05-08T08:15:07.357Z,8.70
2023-05-08T08:17:34.999Z,7.97
2023-05-08T08:20:02.610Z,7.78
2023-05-08T08:22:30.218Z,7.03
2023-05-08T08:24:57.773Z,7.45
2023-05-08T08:27:25.475Z,7.63
2023-05-08T08:30:01.512Z,7.05
2023-05-08T08:32:37.477Z,7.50
2023-05-08T08:35:05.621Z,7.00
2023-05-08T08:37:33.187Z,7.03
2023-05-08T08:40:01.363Z,7.00
2023-05-08T08:42:29.445Z,7.38
2023-05-08T08:44:57.216Z,6.90
2023-05-08T08:47:28.954Z,6.28
2023-05-08T08:50:03.220Z,6.68
2023-05-08T08:52:34.029Z,6.43
2023-05-08T08:55:04.042Z,6.20
2023-05-08T08:57:35.015Z,6.00
2023-05-08T09:00:05.369Z,6.53
2023-05-08T09:02:33.272Z,6.10
2023-05-08T09:05:03.543Z,6.10
2023-05-08T09:07:31.724Z,6.32
2023-05-08T09:10:00.344Z,5.72
2023-05-08T09:12:27.972Z,6.22
2023-05-08T09:14:55.720Z,5.90
2023-05-08T09:17:23.267Z,6.30
2023-05-08T09:19:51.760Z,5.97
2023-05-08T09:22:21.092Z,7.82
2023-05-08T09:24:59.363Z,6.05
2023-05-08T09:27:28.373Z,6.07
2023-05-08T09:30:04.794Z,6.30
2023-05-08T09:32:33.624Z,5.80
2023-05-08T09:35:02.032Z,5.50
2023-05-08T09:37:31.110Z,5.70
2023-05-08T09:40:15.284Z,6.32
2023-05-08T09:42:42.890Z,6.00
2023-05-08T09:45:11.717Z,6.32
2023-05-08T09:47:40.137Z,6.10
2023-05-08T09:50:09.471Z,6.13
2023-05-08T09:52:39.583Z,6.30
2023-05-08T09:55:09.496Z,6.43
2023-05-08T09:57:39.925Z,6.45
2023-05-08T10:00:12.645Z,5.93
2023-05-08T10:02:41.992Z,5.82
2023-05-08T10:05:26.101Z,5.63
2023-05-08T10:07:55.933Z,6.03
2023-05-08T10:10:26.913Z,5.53
2023-05-08T10:12:56.462Z,5.45
2023-05-08T10:15:25.722Z,5.43
2023-05-08T10:17:56.188Z,5.63
2023-05-08T10:20:25.793Z,5.53
2023-05-08T10:22:57.102Z,5.40
2023-05-08T10:25:25.536Z,5.20
2023-05-08T10:28:11.712Z,5.50
2023-05-08T10:30:44.025Z,5.28
2023-05-08T10:33:12.086Z,5.37
2023-05-08T10:35:40.056Z,4.97
2023-05-08T10:38:09.961Z,5.10
2023-05-08T10:40:39.323Z,5.30
2023-05-08T10:43:08.028Z,5.45
2023-05-08T10:45:36.292Z,5.77
2023-05-08T10:48:09.565Z,5.80
2023-05-08T10:50:46.960Z,5.35
2023-05-08T10:53:21.618Z,4.90
2023-05-08T10:55:52.469Z,4.70
2023-05-08T10:58:31.316Z,6.07
2023-05-08T11:01:15.881Z,5.57
2023-05-08T11:03:50.389Z,4.80
2023-05-08T11:06:19.688Z,4.55
2023-05-08T11:08:50.618Z,4.68
2023-05-08T11:11:25.010Z,4.90
2023-05-08T11:13:56.283Z,4.50
2023-05-08T11:17:01.645Z,4.70
2023-05-08T11:19:30.224Z,5.28
2023-05-08T11:22:14.763Z,4.18
2023-05-08T11:24:49.668Z,4.70
2023-05-08T11:27:17.257Z,4.07
2023-05-08T11:29:45.677Z,4.05
2023-05-08T11:32:13.229Z,4.20
2023-05-08T11:34:48.631Z,4.50
2023-05-08T11:37:20.264Z,3.80
2023-05-08T11:39:49.535Z,3.80
2023-05-08T11:42:35.938Z,3.80
2023-05-08T11:45:06.613Z,4.00
2023-05-08T11:47:39.579Z,3.80
2023-05-08T11:50:08.986Z,3.60
2023-05-08T11:52:38.281Z,3.50
2023-05-08T11:55:09.575Z,3.30
2023-05-08T11:57:37.163Z,3.20
2023-05-08T12:00:06.596Z,3.28
2023-05-08T12:02:39.924Z,2.97
2023-05-08T12:05:08.512Z,3.22
2023-05-08T12:07:44.031Z,3.15
2023-05-08T12:10:13.649Z,2.92
2023-05-08T12:12:42.773Z,2.80
2023-05-08T12:15:12.544Z,3.00
2023-05-08T12:17:40.830Z,3.60
2023-05-08T12:20:13.346Z,2.85
2023-05-08T12:22:41.520Z,3.08
2023-05-08T12:25:11.936Z,2.80
2023-05-08T12:27:41.185Z,2.60
2023-05-08T12:30:10.917Z,2.55
2023-05-08T12:32:40.124Z,2.85
2023-05-08T12:35:08.402Z,2.58
2023-05-08T12:37:36.535Z,2.90
2023-05-08T12:40:04.612Z,2.90
2023-05-08T12:42:46.906Z,2.70
2023-05-08T12:45:19.290Z,2.65
2023-05-08T12:47:48.068Z,2.90
2023-05-08T12:50:16.571Z,2.78
2023-05-08T12:52:44.647Z,2.60
2023-05-08T12:55:22.576Z,2.90
2023-05-08T12:57:59.567Z,2.60
2023-05-08T13:00:27.335Z,2.28
2023-05-08T13:02:56.216Z,2.63
2023-05-08T13:05:24.893Z,2.67
2023-05-08T13:07:52.479Z,2.30
2023-05-08T13:10:23.188Z,2.58
2023-05-08T13:12:53.382Z,2.50
2023-05-08T13:15:21.131Z,2.40
2023-05-08T13:17:48.708Z,2.40
2023-05-08T13:20:16.466Z,2.35
2023-05-08T13:22:44.148Z,2.33
2023-05-08T13:25:11.832Z,2.20
2023-05-08T13:27:39.515Z,2.10
2023-05-08T13:30:09.693Z,2.40
2023-05-08T13:32:37.273Z,2.17
2023-05-08T13:35:05.424Z,2.30
2023-05-08T13:37:32.982Z,2.53
2023-05-08T13:40:00.763Z,2.28
2023-05-08T13:42:28.262Z,2.50
2023-05-08T13:44:55.776Z,2.50
2023-05-08T13:47:24.692Z,2.45
2023-05-08T13:49:52.319Z,2.50
2023-05-08T13:52:20.012Z,2.90
2023-05-08T13:54:47.562Z,2.20
2023-05-08T13:57:15.128Z,2.38
2023-05-08T13:59:42.641Z,2.55
2023-05-08T14:02:10.302Z,2.58
2023-05-08T14:04:39.395Z,2.40
2023-05-08T14:07:07.045Z,2.40
2023-05-08T14:09:34.763Z,2.15
2023-05-08T14:12:02.303Z,2.60
2023-05-08T14:14:30.552Z,2.55
2023-05-08T14:16:59.178Z,2.35
2023-05-08T14:19:26.845Z,2.47
2023-05-08T14:21:55.775Z,2.35
2023-05-08T14:24:23.316Z,2.40
2023-05-08T14:26:51.013Z,2.40
2023-05-08T14:29:19.685Z,2.28
2023-05-08T14:31:47.206Z,2.73
2023-05-08T14:34:14.737Z,2.42
2023-05-08T14:36:42.260Z,2.38
2023-05-08T14:39:11.697Z,2.08
2023-05-08T14:41:39.610Z,2.20
2023-05-08T14:44:07.226Z,2.00
2023-05-08T14:46:34.777Z,2.40
2023-05-08T14:49:02.365Z,2.25
2023-05-08T14:51:30.024Z,2.10
2023-05-08T14:53:58.137Z,2.20
2023-05-08T14:56:27.897Z,1.90
2023-05-08T14:58:57.753Z,2.47
2023-05-08T15:01:25.320Z,2.10
2023-05-08T15:03:53.834Z,2.10
2023-05-08T15:06:22.561Z,2.20
2023-05-08T15:08:51.737Z,2.03
2023-05-08T15:11:19.590Z,2.15
2023-05-08T15:13:48.515Z,2.17
2023-05-08T15:16:16.081Z,2.35
2023-05-08T15:18:43.590Z,2.38
2023-05-08T15:21:11.151Z,2.27
2023-05-08T15:23:39.429Z,2.30
2023-05-08T15:26:08.292Z,1.90
2023-05-08T15:28:36.370Z,2.00
2023-05-08T15:31:06.242Z,2.00
2023-05-08T15:33:33.793Z,1.90
2023-05-08T15:36:01.406Z,2.10
2023-05-08T15:38:28.956Z,2.58
2023-05-08T15:40:56.469Z,1.90
2023-05-08T15:43:24.045Z,2.13
2023-05-08T15:45:51.651Z,2.07
2023-05-08T15:48:20.604Z,1.80
2023-05-08T15:50:48.354Z,2.35
2023-05-08T15:53:15.943Z,2.28
2023-05-08T15:55:43.516Z,2.22
2023-05-08T15:58:11.011Z,2.00
2023-05-08T16:00:44.774Z,1.90
2023-05-08T16:03:13.087Z,1.80
2023-05-08T16:05:42.110Z,2.00
2023-05-08T16:08:12.284Z,1.83
2023-05-08T16:10:40.417Z,1.90
2023-05-08T16:13:08.154Z,2.00
2023-05-08T16:15:35.930Z,2.00
2023-05-08T16:18:03.805Z,1.90
2023-05-08T16:20:32.916Z,1.90
2023-05-08T16:23:03.534Z,2.00
2023-05-08T16:25:31.305Z,1.70
2023-05-08T16:27:59.373Z,1.80
2023-05-08T16:30:26.929Z,1.90
2023-05-08T16:32:54.515Z,2.28
2023-05-08T16:35:22.962Z,1.70
2023-05-08T16:37:50.501Z,1.80
2023-05-08T16:40:19.511Z,1.75
2023-05-08T16:42:47.119Z,1.88
2023-05-08T16:45:14.998Z,1.83
2023-05-08T16:47:42.798Z,1.80
2023-05-08T16:50:11.263Z,1.80
2023-05-08T16:52:38.775Z,1.90
2023-05-08T16:55:07.339Z,2.00
2023-05-08T16:57:36.316Z,2.05
2023-05-08T17:00:05.247Z,1.87
2023-05-08T17:02:32.830Z,1.83
2023-05-08T17:05:00.440Z,1.92
2023-05-08T17:07:28.028Z,1.90
2023-05-08T17:09:57.253Z,1.90
2023-05-08T17:12:24.931Z,1.80
2023-05-08T17:14:53.850Z,1.90
2023-05-08T17:17:21.374Z,1.80
2023-05-08T17:19:48.913Z,2.25
2023-05-08T17:22:16.397Z,2.53
2023-05-08T17:24:44.026Z,1.83
2023-05-08T17:27:11.514Z,2.00
2023-05-08T17:29:39.357Z,2.00
2023-05-08T17:32:08.464Z,2.03
2023-05-08T17:34:36.094Z,1.70
2023-05-08T17:37:04.176Z,1.90
2023-05-08T17:39:31.826Z,1.80
2023-05-08T17:41:59.432Z,1.80
2023-05-08T17:44:27.084Z,1.70
2023-05-08T17:46:54.652Z,1.70
2023-05-08T17:49:23.950Z,1.77
2023-05-08T17:51:51.537Z,1.60
2023-05-08T17:54:19.064Z,1.80
2023-05-08T17:56:46.713Z,1.63
2023-05-08T17:59:14.231Z,2.08
2023-05-08T18:01:41.874Z,1.90
2023-05-08T18:04:09.447Z,2.00
2023-05-08T18:06:38.302Z,1.65
2023-05-08T18:09:06.027Z,1.80
2023-05-08T18:11:33.626Z,1.77
2023-05-08T18:14:01.186Z,1.90
2023-05-08T18:16:28.877Z,1.80
2023-05-08T18:18:56.559Z,1.80
2023-05-08T18:21:24.426Z,1.60
2023-05-08T18:23:53.319Z,1.70
2023-05-08T18:26:21.568Z,2.00
2023-05-08T18:28:49.145Z,1.90
2023-05-08T18:31:16.839Z,1.90
2023-05-08T18:33:44.497Z,1.80
2023-05-08T18:36:12.000Z,2.53
2023-05-08T18:38:41.484Z,1.80
2023-05-08T18:41:10.385Z,2.00
2023-05-08T18:43:37.892Z,2.00
2023-05-08T18:46:09.733Z,2.00
2023-05-08T18:48:37.382Z,2.00
2023-05-08T18:51:05.269Z,1.80
2023-05-08T18:53:33.161Z,2.00
2023-05-08T18:56:03.272Z,1.77
2023-05-08T18:58:32.427Z,1.90
2023-05-08T19:01:00.593Z,2.42
2023-05-08T19:03:28.449Z,1.80
2023-05-08T19:05:56.531Z,1.92
2023-05-08T19:08:24.306Z,2.40
2023-05-08T19:10:52.754Z,1.92
2023-05-08T19:13:20.605Z,2.25
2023-05-08T19:15:49.638Z,1.90
2023-05-08T19:18:18.079Z,2.20
2023-05-08T19:20:45.814Z,2.10
2023-05-08T19:23:13.505Z,2.17
2023-05-08T19:25:41.096Z,2.20
2023-05-08T19:28:08.655Z,2.17
2023-05-08T19:30:36.254Z,2.25
2023-05-08T19:33:05.410Z,2.30
2023-05-08T19:35:33.649Z,2.30
2023-05-08T19:38:01.526Z,2.42
2023-05-08T19:40:29.125Z,2.57
2023-05-08T19:42:56.809Z,2.30
2023-05-08T19:45:24.318Z,3.03
2023-05-08T19:47:51.886Z,4.22
2023-05-08T19:50:21.254Z,2.45
2023-05-08T19:52:49.396Z,2.30
2023-05-08T19:55:17.365Z,2.22
2023-05-08T19:57:45.332Z,2.67
2023-05-08T20:00:13.794Z,2.53
2023-05-08T20:02:41.572Z,2.20
2023-05-08T20:07:42.310Z,2.80
2023-05-08T20:10:10.353Z,2.33
2023-05-08T20:12:37.978Z,2.67
2023-05-08T20:15:06.494Z,2.40
2023-05-08T20:17:34.305Z,2.03
2023-05-08T20:20:01.985Z,2.80
2023-05-08T20:22:29.526Z,2.38
2023-05-08T20:24:58.528Z,2.30
2023-05-08T20:27:26.380Z,2.50
2023-05-08T20:29:53.997Z,2.40
2023-05-08T20:32:21.602Z,2.20
2023-05-08T20:34:49.313Z,2.17
2023-05-08T20:37:16.968Z,2.40
2023-05-08T20:39:45.019Z,2.60
2023-05-08T20:42:13.939Z,2.30
2023-05-08T20:44:41.551Z,2.40
2023-05-08T20:47:09.099Z,2.30
2023-05-08T20:49:36.749Z,2.22
2023-05-08T20:52:05.427Z,2.30
2023-05-08T20:54:33.116Z,2.20
2023-05-08T20:57:01.859Z,2.50
2023-05-08T20:59:30.849Z,2.40
2023-05-08T21:01:58.420Z,2.40
2023-05-08T21:04:26.021Z,2.45
2023-05-08T21:06:53.648Z,2.50
2023-05-08T21:09:21.229Z,2.50
2023-05-08T21:11:48.773Z,2.40
2023-05-08T21:14:16.346Z,2.70
2023-05-08T21:16:45.250Z,2.60
2023-05-08T21:19:17.102Z,2.37
2023-05-08T21:21:44.724Z,2.35
2023-05-08T21:24:12.414Z,2.45
2023-05-08T21:26:40.322Z,2.40
2023-05-08T21:29:10.627Z,2.45
2023-05-08T21:31:38.475Z,2.40
2023-05-08T21:34:07.844Z,2.47
2023-05-08T21:36:35.598Z,2.40
2023-05-08T21:39:03.669Z,2.35
2023-05-08T21:41:32.861Z,2.42
2023-05-08T21:44:00.739Z,2.70
2023-05-08T21:46:28.258Z,2.63
2023-05-08T21:48:55.832Z,2.50
2023-05-08T21:51:24.833Z,2.70
2023-05-08T21:53:52.333Z,2.67
2023-05-08T21:56:20.701Z,2.63
2023-05-08T21:58:49.046Z,2.55
2023-05-08T22:01:16.865Z,2.53
2023-05-08T22:03:44.489Z,2.80
2023-05-08T22:06:12.137Z,2.60
2023-05-08T22:08:41.029Z,2.60
2023-05-08T22:11:08.587Z,2.55
2023-05-08T22:13:36.437Z,2.67
2023-05-08T22:16:04.121Z,2.50
2023-05-08T22:18:31.718Z,2.72
2023-05-08T22:20:59.259Z,2.63
2023-05-08T22:23:26.770Z,2.67
2023-05-08T22:25:55.609Z,2.55
2023-05-08T22:28:23.171Z,2.60
2023-05-08T22:30:50.722Z,2.40
2023-05-08T22:33:18.358Z,2.40
2023-05-08T22:35:45.854Z,2.60
2023-05-08T22:38:13.405Z,2.63
2023-05-08T22:40:42.377Z,2.80
2023-05-08T22:43:11.341Z,2.72
2023-05-08T22:45:38.974Z,2.90
2023-05-08T22:48:07.441Z,2.97
2023-05-08T22:50:36.469Z,2.67
2023-05-08T22:53:07.894Z,2.80
2023-05-08T22:55:36.061Z,2.55
2023-05-08T22:58:04.027Z,2.70
2023-05-08T23:00:32.908Z,2.70
2023-05-08T23:03:00.549Z,2.90
2023-05-08T23:05:28.182Z,2.80
2023-05-08T23:07:55.736Z,2.90
2023-05-08T23:10:23.352Z,2.80
2023-05-08T23:12:50.913Z,2.70
2023-05-08T23:15:20.988Z,2.70
2023-05-08T23:17:50.253Z,2.80
2023-05-08T23:20:18.080Z,2.78
2023-05-08T23:22:45.600Z,2.70
2023-05-08T23:25:13.378Z,2.80
2023-05-08T23:27:41.399Z,2.80
2023-05-08T23:30:12.738Z,2.58
2023-05-08T23:32:40.358Z,2.70
2023-05-08T23:35:10.513Z,2.40
2023-05-08T23:37:38.057Z,2.90
2023-05-08T23:40:07.155Z,2.70
2023-05-08T23:42:34.713Z,2.67
2023-05-08T23:45:02.268Z,2.83
2023-05-08T23:47:29.854Z,2.70
2023-05-08T23:49:57.431Z,2.60
2023-05-08T23:52:26.735Z,2.90
2023-05-08T23:54:54.284Z,2.90
2023-05-08T23:57:21.772Z,2.70
2023-05-08T23:59:49.397Z,2.50
